Time;durP1;ratioP1;P1;durP2;ratioP2;P2;SDS_P1;SDS_P2;PMS_P1;PMS_P2;Temp;Humidity;BMP_temperature;BMP_pressure;BME280_temperature;BME280_humidity;BME280_pressure;Samples;Min_cycle;Max_cycle;Signal;HPM_P1;HPM_P2
2023/06/20 00:01:23;;;;;;;14.10;10.70;;;;;;;-128.00;-1.00;-1.00;26436;295;7502374;-35
2023/06/20 00:03:51;;;;;;;15.80;11.00;;;;;;;-128.00;-1.00;-1.00;25876;295;7503936;-31
2023/06/20 00:06:21;;;;;;;14.70;10.60;;;;;;;-128.00;-1.00;-1.00;20426;295;7503967;-33
2023/06/20 00:08:50;;;;;;;11.30;10.00;;;;;;;-128.00;-1.00;-1.00;19334;295;7504395;-31
2023/06/20 00:11:16;;;;;;;12.30;10.50;;;;;;;-128.00;-1.00;-1.00;22559;295;7504367;-35
2023/06/20 00:13:43;;;;;;;9.80;8.70;;;;;;;-128.00;-1.00;-1.00;23191;295;6323833;-35
2023/06/20 00:16:09;;;;;;;11.60;10.20;;;;;;;-128.00;-1.00;-1.00;30847;295;6295475;-31
2023/06/20 00:18:35;;;;;;;15.20;8.60;;;;;;;-128.00;-1.00;-1.00;41145;295;5259101;-32
2023/06/20 00:21:01;;;;;;;9.10;8.30;;;;;;;-128.00;-1.00;-1.00;46721;295;3900004;-35
2023/06/20 00:23:29;;;;;;;7.60;5.80;;;;;;;-128.00;-1.00;-1.00;85924;295;4249535;-35
2023/06/20 00:25:56;;;;;;;6.40;5.50;;;;;;;-128.00;-1.00;-1.00;98005;295;1005001;-31
2023/06/20 00:28:22;;;;;;;8.50;7.40;;;;;;;-128.00;-1.00;-1.00;91067;295;2471044;-35
2023/06/20 00:30:47;;;;;;;9.70;7.50;;;;;;;-128.00;-1.00;-1.00;96279;295;1094581;-32
2023/06/20 00:33:13;;;;;;;12.10;8.50;;;;;;;-128.00;-1.00;-1.00;91626;283;2081100;-35
2023/06/20 00:35:38;;;;;;;7.30;6.20;;;;;;;-128.00;-1.00;-1.00;51117;295;4231376;-34
2023/06/20 01:19:01;;;;;;;18.50;15.70;;;;;;;-99.59;15.66;19861.97;45311;294;7504341;-34
2023/06/20 01:21:34;;;;;;;13.20;11.80;;;;;;;-128.00;-1.00;-1.00;18126;296;7506216;-35
2023/06/20 01:24:03;;;;;;;18.90;14.50;;;;;;;-128.00;-1.00;-1.00;18504;294;7504448;-31
2023/06/20 01:26:34;;;;;;;14.10;11.30;;;;;;;-128.00;-1.00;-1.00;18465;294;7505854;-35
2023/06/20 01:29:20;;;;;;;13.90;12.20;;;;;;;-128.00;-1.00;-1.00;18468;317;7504493;-35
2023/06/20 01:31:58;;;;;;;15.60;12.80;;;;;;;-128.00;-1.00;-1.00;18485;294;7505853;-35
2023/06/20 01:34:27;;;;;;;15.20;11.40;;;;;;;-128.00;-1.00;-1.00;18484;294;7505852;-30
2023/06/20 01:36:55;;;;;;;14.70;12.60;;;;;;;-128.00;-1.00;-1.00;18527;294;7506905;-31
2023/06/20 01:39:23;;;;;;;15.70;11.70;;;;;;;-128.00;-1.00;-1.00;18464;293;7504554;-31
2023/06/20 01:41:49;;;;;;;16.50;13.50;;;;;;;-128.00;-1.00;-1.00;18514;294;7504350;-31
2023/06/20 01:44:15;;;;;;;17.70;14.20;;;;;;;-128.00;-1.00;-1.00;18916;294;7504239;-34
2023/06/20 01:46:42;;;;;;;17.20;13.90;;;;;;;-128.00;-1.00;-1.00;18893;285;7505143;-35
2023/06/20 01:49:08;;;;;;;30.60;12.40;;;;;;;-128.00;-1.00;-1.00;18500;294;7504920;-30
2023/06/20 01:51:34;;;;;;;18.80;16.40;;;;;;;-128.00;-1.00;-1.00;18490;294;7504295;-31
2023/06/20 01:54:02;;;;;;;26.50;15.50;;;;;;;-128.00;-1.00;-1.00;18476;294;7505864;-31
2023/06/20 01:56:27;;;;;;;16.50;12.60;;;;;;;-128.00;-1.00;-1.00;18469;294;7505034;-35
2023/06/20 01:58:53;;;;;;;13.50;12.10;;;;;;;-128.00;-1.00;-1.00;18483;294;7504336;-31
2023/06/20 02:01:19;;;;;;;18.30;14.60;;;;;;;-128.00;-1.00;-1.00;18479;294;7505156;-31
2023/06/20 02:03:44;;;;;;;14.70;11.80;;;;;;;-128.00;-1.00;-1.00;18507;294;7504968;-35
2023/06/20 02:06:11;;;;;;;15.40;13.10;;;;;;;-128.00;-1.00;-1.00;18496;294;7506146;-31
2023/06/20 02:08:37;;;;;;;14.20;10.60;;;;;;;-128.00;-1.00;-1.00;18478;293;7504502;-35
2023/06/20 02:11:03;;;;;;;13.80;11.10;;;;;;;-128.00;-1.00;-1.00;18507;334;7504273;-35
2023/06/20 02:13:28;;;;;;;16.40;10.70;;;;;;;-128.00;-1.00;-1.00;18496;294;7504688;-35
2023/06/20 02:15:54;;;;;;;15.50;10.70;;;;;;;-128.00;-1.00;-1.00;18475;294;7505290;-32
2023/06/20 02:18:20;;;;;;;11.80;10.40;;;;;;;-128.00;-1.00;-1.00;18511;294;7504474;-34
2023/06/20 02:20:48;;;;;;;20.80;12.30;;;;;;;-128.00;-1.00;-1.00;18464;318;7505848;-34
2023/06/20 02:23:15;;;;;;;11.50;9.80;;;;;;;-128.00;-1.00;-1.00;18459;294;7505255;-34
2023/06/20 02:25:42;;;;;;;15.00;12.60;;;;;;;-128.00;-1.00;-1.00;18473;342;7504640;-34
2023/06/20 02:28:07;;;;;;;15.20;12.10;;;;;;;-128.00;-1.00;-1.00;18468;338;7506103;-29
2023/06/20 02:30:34;;;;;;;16.10;12.60;;;;;;;-128.00;-1.00;-1.00;18494;346;7505946;-29
2023/06/20 02:33:00;;;;;;;17.50;11.90;;;;;;;-128.00;-1.00;-1.00;18890;294;7505464;-34
2023/06/20 02:35:26;;;;;;;11.40;10.10;;;;;;;-128.00;-1.00;-1.00;18889;294;7505350;-31
2023/06/20 02:37:53;;;;;;;17.90;12.00;;;;;;;-128.00;-1.00;-1.00;18870;294;7504444;-30
2023/06/20 02:40:23;;;;;;;16.80;11.50;;;;;;;-128.00;-1.00;-1.00;18481;317;7506008;-34
2023/06/20 02:42:49;;;;;;;16.60;11.50;;;;;;;-128.00;-1.00;-1.00;18482;294;7505553;-31
2023/06/20 02:45:15;;;;;;;18.00;13.70;;;;;;;-128.00;-1.00;-1.00;18493;294;7505880;-31
2023/06/20 02:48:01;;;;;;;20.90;12.70;;;;;;;-128.00;-1.00;-1.00;18494;338;7504604;-31
2023/06/20 02:50:51;;;;;;;26.80;17.30;;;;;;;-128.00;-1.00;-1.00;18513;294;7504580;-34
2023/06/20 02:53:38;;;;;;;24.60;21.80;;;;;;;-128.00;-1.00;-1.00;18484;346;7507092;-36
2023/06/20 02:56:07;;;;;;;28.20;19.50;;;;;;;-128.00;-1.00;-1.00;18487;306;7506048;-32
2023/06/20 02:58:33;;;;;;;16.10;13.60;;;;;;;-128.00;-1.00;-1.00;18505;322;7504592;-34
2023/06/20 03:00:59;;;;;;;17.80;12.80;;;;;;;-128.00;-1.00;-1.00;18484;294;7506249;-34
2023/06/20 03:03:26;;;;;;;27.90;12.40;;;;;;;-128.00;-1.00;-1.00;18489;294;7504508;-30
2023/06/20 03:05:56;;;;;;;18.70;12.90;;;;;;;-128.00;-1.00;-1.00;18484;334;7504897;-30
2023/06/20 03:08:23;;;;;;;17.10;12.80;;;;;;;-128.00;-1.00;-1.00;18518;306;7505201;-34
2023/06/20 03:10:48;;;;;;;17.10;11.30;;;;;;;-128.00;-1.00;-1.00;18466;294;7504520;-30
2023/06/20 03:13:15;;;;;;;16.80;13.10;;;;;;;-128.00;-1.00;-1.00;18892;294;7504307;-34
2023/06/20 03:15:41;;;;;;;16.60;12.40;;;;;;;-128.00;-1.00;-1.00;18494;293;7505409;-34
2023/06/20 03:18:08;;;;;;;22.20;15.80;;;;;;;-128.00;-1.00;-1.00;18486;294;7504084;-31
2023/06/20 03:20:34;;;;;;;19.20;15.00;;;;;;;-128.00;-1.00;-1.00;18501;294;7504693;-31
2023/06/20 03:23:00;;;;;;;22.10;17.20;;;;;;;-128.00;-1.00;-1.00;18512;286;7504790;-34
2023/06/20 03:25:26;;;;;;;16.20;12.90;;;;;;;-128.00;-1.00;-1.00;18517;294;7506704;-29
2023/06/20 03:27:52;;;;;;;18.50;12.60;;;;;;;-128.00;-1.00;-1.00;18892;294;7504356;-30
2023/06/20 03:30:19;;;;;;;20.30;12.20;;;;;;;-128.00;-1.00;-1.00;18878;294;7505554;-35
2023/06/20 03:32:45;;;;;;;17.50;13.10;;;;;;;-128.00;-1.00;-1.00;18908;294;7506389;-35
2023/06/20 03:35:11;;;;;;;16.80;12.20;;;;;;;-128.00;-1.00;-1.00;18905;294;7505359;-33
2023/06/20 03:37:37;;;;;;;18.60;13.20;;;;;;;-128.00;-1.00;-1.00;18900;293;7504092;-35
2023/06/20 03:40:05;;;;;;;15.30;12.90;;;;;;;-128.00;-1.00;-1.00;18872;294;7504924;-35
2023/06/20 03:42:31;;;;;;;18.40;13.90;;;;;;;-128.00;-1.00;-1.00;18501;294;7504694;-35
2023/06/20 03:44:58;;;;;;;17.70;10.40;;;;;;;-128.00;-1.00;-1.00;18492;334;7506619;-31
2023/06/20 03:47:24;;;;;;;18.30;13.00;;;;;;;-128.00;-1.00;-1.00;18465;294;7506429;-31
2023/06/20 03:49:49;;;;;;;17.90;12.00;;;;;;;-128.00;-1.00;-1.00;18491;294;7505990;-31
2023/06/20 03:52:15;;;;;;;18.00;12.90;;;;;;;-128.00;-1.00;-1.00;18921;334;7504189;-35
2023/06/20 03:54:41;;;;;;;16.10;12.00;;;;;;;-128.00;-1.00;-1.00;18882;294;7504877;-31
2023/06/20 03:57:08;;;;;;;14.20;12.20;;;;;;;-128.00;-1.00;-1.00;18899;334;7504187;-35
2023/06/20 03:59:34;;;;;;;15.20;11.80;;;;;;;-128.00;-1.00;-1.00;18924;294;7504484;-32
2023/06/20 04:02:00;;;;;;;15.60;12.00;;;;;;;-128.00;-1.00;-1.00;18905;294;7504871;-35
2023/06/20 04:04:26;;;;;;;17.50;11.60;;;;;;;-128.00;-1.00;-1.00;18889;294;7505726;-35
2023/06/20 04:06:52;;;;;;;20.40;11.70;;;;;;;-128.00;-1.00;-1.00;18898;294;7504479;-32
2023/06/20 04:09:19;;;;;;;18.70;11.60;;;;;;;-128.00;-1.00;-1.00;18888;294;7504236;-35
2023/06/20 04:11:45;;;;;;;12.60;11.10;;;;;;;-128.00;-1.00;-1.00;18482;294;7505016;-32
2023/06/20 04:14:10;;;;;;;15.10;11.40;;;;;;;-128.00;-1.00;-1.00;18472;346;7504752;-32
2023/06/20 04:16:36;;;;;;;14.60;10.90;;;;;;;-128.00;-1.00;-1.00;18485;314;7506089;-32
2023/06/20 04:19:02;;;;;;;17.50;13.30;;;;;;;-128.00;-1.00;-1.00;18477;294;7504887;-36
2023/06/20 04:21:31;;;;;;;27.20;11.40;;;;;;;-128.00;-1.00;-1.00;18530;294;7506594;-36
2023/06/20 04:23:57;;;;;;;12.70;10.30;;;;;;;-128.00;-1.00;-1.00;18485;338;7505985;-32
2023/06/20 04:26:24;;;;;;;24.60;11.70;;;;;;;-128.00;-1.00;-1.00;18475;294;7504253;-36
2023/06/20 04:28:49;;;;;;;13.20;11.00;;;;;;;-128.00;-1.00;-1.00;18481;295;7506115;-32
2023/06/20 04:31:15;;;;;;;14.20;11.80;;;;;;;-128.00;-1.00;-1.00;18464;294;7504399;-35
2023/06/20 04:33:43;;;;;;;18.50;10.80;;;;;;;-128.00;-1.00;-1.00;18480;294;7505643;-31
2023/06/20 04:36:13;;;;;;;12.30;11.00;;;;;;;-128.00;-1.00;-1.00;18452;294;7504869;-36
2023/06/20 04:38:39;;;;;;;13.20;11.90;;;;;;;-128.00;-1.00;-1.00;18467;294;7505974;-32
2023/06/20 04:41:05;;;;;;;11.30;10.20;;;;;;;-128.00;-1.00;-1.00;18463;306;7506192;-32
2023/06/20 04:43:31;;;;;;;18.40;12.80;;;;;;;-128.00;-1.00;-1.00;18468;287;7504567;-32
2023/06/20 04:45:57;;;;;;;14.10;11.80;;;;;;;-128.00;-1.00;-1.00;18491;294;7504575;-35
2023/06/20 04:48:28;;;;;;;12.90;10.40;;;;;;;-128.00;-1.00;-1.00;18478;294;7506689;-33
2023/06/20 04:50:55;;;;;;;10.60;9.40;;;;;;;-128.00;-1.00;-1.00;18475;294;7504266;-36
2023/06/20 04:53:22;;;;;;;17.80;10.60;;;;;;;-128.00;-1.00;-1.00;18503;295;7504651;-35
2023/06/20 04:55:48;;;;;;;16.50;12.30;;;;;;;-128.00;-1.00;-1.00;18478;294;7505331;-35
2023/06/20 04:58:15;;;;;;;15.80;13.30;;;;;;;-128.00;-1.00;-1.00;18463;294;7505206;-36
2023/06/20 05:00:40;;;;;;;11.10;9.10;;;;;;;-128.00;-1.00;-1.00;18485;294;7504193;-35
2023/06/20 05:03:06;;;;;;;15.90;10.50;;;;;;;-128.00;-1.00;-1.00;18488;326;7506208;-35
2023/06/20 05:05:32;;;;;;;12.90;10.30;;;;;;;-128.00;-1.00;-1.00;18467;286;7504802;-31
2023/06/20 05:07:58;;;;;;;14.60;11.60;;;;;;;-128.00;-1.00;-1.00;18470;294;7504584;-33
2023/06/20 05:10:24;;;;;;;20.20;10.40;;;;;;;-128.00;-1.00;-1.00;18480;294;7506047;-35
2023/06/20 05:12:49;;;;;;;10.80;9.70;;;;;;;-128.00;-1.00;-1.00;18470;294;7504872;-35
2023/06/20 05:15:15;;;;;;;10.50;9.40;;;;;;;-128.00;-1.00;-1.00;18508;294;7505232;-35
2023/06/20 05:17:41;;;;;;;15.10;12.50;;;;;;;-128.00;-1.00;-1.00;18865;338;7505041;-32
2023/06/20 05:20:08;;;;;;;12.20;10.50;;;;;;;-128.00;-1.00;-1.00;18881;334;7504923;-35
2023/06/20 05:22:34;;;;;;;14.50;10.50;;;;;;;-128.00;-1.00;-1.00;18468;317;7504653;-35
2023/06/20 05:24:59;;;;;;;12.00;9.50;;;;;;;-128.00;-1.00;-1.00;18477;334;7504910;-35
2023/06/20 05:27:25;;;;;;;14.10;10.30;;;;;;;-128.00;-1.00;-1.00;18448;295;7505149;-32
2023/06/20 05:29:51;;;;;;;11.20;10.10;;;;;;;-128.00;-1.00;-1.00;18893;306;7504514;-31
2023/06/20 05:32:17;;;;;;;10.70;9.00;;;;;;;-128.00;-1.00;-1.00;18889;306;7504400;-37
2023/06/20 05:34:44;;;;;;;14.70;10.00;;;;;;;-128.00;-1.00;-1.00;18867;294;7505800;-36
2023/06/20 05:37:09;;;;;;;10.60;9.30;;;;;;;-128.00;-1.00;-1.00;18483;294;7504819;-32
2023/06/20 05:39:35;;;;;;;15.70;9.30;;;;;;;-128.00;-1.00;-1.00;18893;294;7504862;-36
2023/06/20 05:42:02;;;;;;;11.10;10.00;;;;;;;-128.00;-1.00;-1.00;18875;294;7504379;-33
2023/06/20 05:44:28;;;;;;;24.00;10.80;;;;;;;-128.00;-1.00;-1.00;18899;294;7504768;-35
2023/06/20 05:46:54;;;;;;;13.00;9.30;;;;;;;-128.00;-1.00;-1.00;18870;294;7504400;-35
2023/06/20 05:49:21;;;;;;;17.60;9.70;;;;;;;-128.00;-1.00;-1.00;18892;346;7504960;-35
2023/06/20 05:51:47;;;;;;;12.20;9.20;;;;;;;-128.00;-1.00;-1.00;18473;338;7505771;-36
2023/06/20 05:54:13;;;;;;;9.20;8.30;;;;;;;-128.00;-1.00;-1.00;18475;282;7505973;-32
2023/06/20 05:56:39;;;;;;;11.70;9.40;;;;;;;-128.00;-1.00;-1.00;18506;294;7505475;-32
2023/06/20 05:59:06;;;;;;;9.30;8.20;;;;;;;-128.00;-1.00;-1.00;18498;286;7504973;-32
2023/06/20 06:01:32;;;;;;;9.40;8.20;;;;;;;-128.00;-1.00;-1.00;18519;309;7504979;-36
2023/06/20 06:03:58;;;;;;;14.40;10.20;;;;;;;-128.00;-1.00;-1.00;18904;309;7505639;-35
2023/06/20 06:06:24;;;;;;;14.50;9.70;;;;;;;-128.00;-1.00;-1.00;18872;294;7504489;-34
2023/06/20 06:08:51;;;;;;;14.90;10.50;;;;;;;-128.00;-1.00;-1.00;18878;294;7504979;-32
2023/06/20 06:11:17;;;;;;;16.40;10.30;;;;;;;-128.00;-1.00;-1.00;18914;294;7504594;-32
2023/06/20 06:13:43;;;;;;;11.70;9.80;;;;;;;-128.00;-1.00;-1.00;18889;338;7504946;-34
2023/06/20 06:16:09;;;;;;;9.00;8.10;;;;;;;-128.00;-1.00;-1.00;18892;286;7504830;-32
2023/06/20 06:18:35;;;;;;;14.70;10.50;;;;;;;-128.00;-1.00;-1.00;18876;294;7504960;-32
2023/06/20 06:21:02;;;;;;;10.10;8.40;;;;;;;-128.00;-1.00;-1.00;18889;294;7504181;-36
2023/06/20 06:23:28;;;;;;;9.40;7.80;;;;;;;-128.00;-1.00;-1.00;18491;294;7506453;-36
2023/06/20 06:25:54;;;;;;;8.70;7.60;;;;;;;-128.00;-1.00;-1.00;18909;334;7504811;-35
2023/06/20 06:28:22;;;;;;;9.80;8.40;;;;;;;-128.00;-1.00;-1.00;18889;342;7505033;-36
2023/06/20 06:30:47;;;;;;;19.70;6.50;;;;;;;-128.00;-1.00;-1.00;18487;294;7504590;-35
2023/06/20 06:33:13;;;;;;;7.00;6.10;;;;;;;-128.00;-1.00;-1.00;18504;294;7506344;-35
2023/06/20 06:35:39;;;;;;;8.00;7.20;;;;;;;-128.00;-1.00;-1.00;18467;294;7504636;-36
2023/06/20 06:38:05;;;;;;;8.40;7.50;;;;;;;-128.00;-1.00;-1.00;18494;294;7506526;-33
2023/06/20 06:40:31;;;;;;;6.30;5.70;;;;;;;-128.00;-1.00;-1.00;18455;294;7506355;-34
2023/06/20 06:42:58;;;;;;;6.60;6.00;;;;;;;-128.00;-1.00;-1.00;18506;294;7504049;-32
2023/06/20 06:45:23;;;;;;;6.00;5.50;;;;;;;-128.00;-1.00;-1.00;18487;294;7504578;-35
2023/06/20 06:47:49;;;;;;;12.20;5.90;;;;;;;-128.00;-1.00;-1.00;18482;294;7506017;-32
2023/06/20 06:50:15;;;;;;;6.80;6.00;;;;;;;-128.00;-1.00;-1.00;18893;296;7505296;-31
2023/06/20 06:52:42;;;;;;;6.50;5.90;;;;;;;-128.00;-1.00;-1.00;18880;334;7504753;-32
2023/06/20 06:55:08;;;;;;;7.20;6.30;;;;;;;-128.00;-1.00;-1.00;18896;295;7504418;-32
2023/06/20 06:57:34;;;;;;;7.10;6.20;;;;;;;-128.00;-1.00;-1.00;18926;310;7505045;-35
2023/06/20 07:00:00;;;;;;;15.00;6.70;;;;;;;-128.00;-1.00;-1.00;18877;294;7504648;-35
2023/06/20 07:02:27;;;;;;;8.90;7.50;;;;;;;-128.00;-1.00;-1.00;18489;294;7504292;-32
2023/06/20 07:04:53;;;;;;;7.70;7.00;;;;;;;-128.00;-1.00;-1.00;18480;294;7504784;-35
2023/06/20 07:07:19;;;;;;;6.10;5.60;;;;;;;-128.00;-1.00;-1.00;18508;294;7506797;-35
2023/06/20 07:09:45;;;;;;;7.30;6.50;;;;;;;-128.00;-1.00;-1.00;18880;318;7504916;-35
2023/06/20 07:12:12;;;;;;;8.30;6.90;;;;;;;-128.00;-1.00;-1.00;18901;283;7504295;-32
2023/06/20 07:14:38;;;;;;;7.30;6.00;;;;;;;-128.00;-1.00;-1.00;18478;294;7505342;-35
2023/06/20 07:17:06;;;;;;;6.70;6.10;;;;;;;-128.00;-1.00;-1.00;18895;294;7504718;-35
2023/06/20 07:19:33;;;;;;;7.90;7.20;;;;;;;-128.00;-1.00;-1.00;18922;294;7506169;-31
2023/06/20 07:21:59;;;;;;;7.70;6.90;;;;;;;-128.00;-1.00;-1.00;18884;293;7504761;-35
2023/06/20 07:24:25;;;;;;;9.50;7.70;;;;;;;-128.00;-1.00;-1.00;18883;286;7504306;-35
2023/06/20 07:26:51;;;;;;;7.20;6.50;;;;;;;-128.00;-1.00;-1.00;18902;334;7504391;-35
2023/06/20 07:29:17;;;;;;;7.20;6.60;;;;;;;-128.00;-1.00;-1.00;18876;338;7504748;-32
2023/06/20 07:31:43;;;;;;;7.00;6.30;;;;;;;-128.00;-1.00;-1.00;18893;293;7504172;-35
2023/06/20 07:34:10;;;;;;;8.70;7.30;;;;;;;-128.00;-1.00;-1.00;18866;306;7505412;-35
2023/06/20 07:36:36;;;;;;;9.00;7.40;;;;;;;-128.00;-1.00;-1.00;18936;294;7504886;-32
2023/06/20 07:39:02;;;;;;;8.30;6.70;;;;;;;-128.00;-1.00;-1.00;18456;294;7505715;-34
2023/06/20 07:41:28;;;;;;;7.10;6.40;;;;;;;-128.00;-1.00;-1.00;18483;293;7504408;-35
2023/06/20 07:43:54;;;;;;;8.20;7.50;;;;;;;-128.00;-1.00;-1.00;18879;294;7504662;-35
2023/06/20 07:46:20;;;;;;;8.70;8.00;;;;;;;-128.00;-1.00;-1.00;18896;294;7506475;-35
2023/06/20 07:48:48;;;;;;;12.80;7.80;;;;;;;-128.00;-1.00;-1.00;18866;294;7504402;-38
2023/06/20 07:51:13;;;;;;;8.20;7.40;;;;;;;-128.00;-1.00;-1.00;18477;294;7504505;-32
2023/06/20 07:53:39;;;;;;;9.30;6.70;;;;;;;-128.00;-1.00;-1.00;18900;294;7505811;-32
2023/06/20 07:56:06;;;;;;;8.10;7.40;;;;;;;-128.00;-1.00;-1.00;18879;294;7504304;-33
2023/06/20 07:58:32;;;;;;;5.00;4.60;;;;;;;-128.00;-1.00;-1.00;18511;294;7505007;-36
2023/06/20 08:01:00;;;;;;;8.40;6.90;;;;;;;-128.00;-1.00;-1.00;18868;287;7505867;-35
2023/06/20 08:03:26;;;;;;;8.10;7.30;;;;;;;-128.00;-1.00;-1.00;18514;294;7507050;-32
2023/06/20 08:05:51;;;;;;;6.00;5.60;;;;;;;-128.00;-1.00;-1.00;18480;301;7506203;-36
2023/06/20 08:08:18;;;;;;;6.20;5.60;;;;;;;-128.00;-1.00;-1.00;18461;302;7506598;-36
2023/06/20 08:10:43;;;;;;;16.10;6.70;;;;;;;-128.00;-1.00;-1.00;18477;294;7504565;-35
2023/06/20 08:13:09;;;;;;;6.90;6.30;;;;;;;-128.00;-1.00;-1.00;18480;322;7504608;-32
2023/06/20 08:15:37;;;;;;;6.00;5.50;;;;;;;-128.00;-1.00;-1.00;18900;294;7505193;-36
2023/06/20 08:18:02;;;;;;;5.20;4.70;;;;;;;-128.00;-1.00;-1.00;37711;294;7505229;-40
2023/06/20 08:20:28;;;;;;;8.40;6.00;;;;;;;-128.00;-1.00;-1.00;97982;294;1003016;-32
2023/06/20 08:22:54;;;;;;;5.40;5.00;;;;;;;-128.00;-1.00;-1.00;97961;294;1003753;-34
2023/06/20 08:25:19;;;;;;;7.30;5.30;;;;;;;-128.00;-1.00;-1.00;98116;282;1004263;-31
2023/06/20 08:27:45;;;;;;;4.90;4.40;;;;;;;-128.00;-1.00;-1.00;97939;293;1003236;-34
2023/06/20 08:30:12;;;;;;;5.30;4.90;;;;;;;-128.00;-1.00;-1.00;97858;294;1003060;-31
2023/06/20 08:32:41;;;;;;;6.20;5.50;;;;;;;-128.00;-1.00;-1.00;97954;293;1003335;-36
2023/06/20 08:35:09;;;;;;;6.00;5.50;;;;;;;-128.00;-1.00;-1.00;97917;293;1003542;-31
2023/06/20 08:37:37;;;;;;;5.00;4.40;;;;;;;-128.00;-1.00;-1.00;98057;294;1003339;-35
2023/06/20 08:40:08;;;;;;;4.70;4.20;;;;;;;-128.00;-1.00;-1.00;97889;294;1003058;-32
2023/06/20 08:42:34;;;;;;;6.30;5.80;;;;;;;-128.00;-1.00;-1.00;97860;294;1003244;-30
2023/06/20 08:44:59;;;;;;;4.90;4.50;;;;;;;-128.00;-1.00;-1.00;97814;294;1004323;-31
2023/06/20 08:47:25;;;;;;;6.00;5.50;;;;;;;-128.00;-1.00;-1.00;97958;294;1004282;-37
2023/06/20 08:49:51;;;;;;;5.00;4.50;;;;;;;-128.00;-1.00;-1.00;97889;294;1003272;-35
2023/06/20 08:52:19;;;;;;;6.20;5.50;;;;;;;-128.00;-1.00;-1.00;98016;294;1004311;-32
2023/06/20 08:54:48;;;;;;;4.40;3.90;;;;;;;-128.00;-1.00;-1.00;97880;294;1004012;-33
2023/06/20 08:57:13;;;;;;;4.70;4.30;;;;;;;-128.00;-1.00;-1.00;97861;294;1002815;-35
2023/06/20 08:59:39;;;;;;;5.20;4.70;;;;;;;-128.00;-1.00;-1.00;97800;294;1003706;-35
2023/06/20 09:02:07;;;;;;;9.10;5.60;;;;;;;-128.00;-1.00;-1.00;97792;294;1002750;-31
2023/06/20 09:04:33;;;;;;;5.70;4.90;;;;;;;-128.00;-1.00;-1.00;97854;294;1002656;-32
2023/06/20 09:07:01;;;;;;;9.20;4.10;;;;;;;-128.00;-1.00;-1.00;97817;294;1003933;-35
2023/06/20 09:09:29;;;;;;;9.10;5.20;;;;;;;-128.00;-1.00;-1.00;97869;283;1003236;-31
2023/06/20 09:11:57;;;;;;;4.60;4.30;;;;;;;-128.00;-1.00;-1.00;98004;294;1005381;-31
2023/06/20 09:14:27;;;;;;;7.50;5.40;;;;;;;-128.00;-1.00;-1.00;97895;282;1003295;-34
2023/06/20 09:16:53;;;;;;;7.80;4.90;;;;;;;-128.00;-1.00;-1.00;97968;294;1004134;-32
2023/06/20 09:19:19;;;;;;;4.70;4.30;;;;;;;-128.00;-1.00;-1.00;97898;294;1003335;-35
2023/06/20 09:21:44;;;;;;;5.40;5.00;;;;;;;-128.00;-1.00;-1.00;97660;294;1003350;-35
2023/06/20 09:24:11;;;;;;;5.40;4.70;;;;;;;-128.00;-1.00;-1.00;97882;283;1003416;-32
2023/06/20 09:26:36;;;;;;;4.10;3.70;;;;;;;-128.00;-1.00;-1.00;97880;294;1003975;-35
2023/06/20 09:29:10;;;;;;;7.00;5.60;;;;;;;-128.00;-1.00;-1.00;97812;294;1003345;-35
2023/06/20 09:31:43;;;;;;;5.60;4.30;;;;;;;-128.00;-1.00;-1.00;97858;294;1002738;-37
2023/06/20 09:34:13;;;;;;;7.90;6.40;;;;;;;-128.00;-1.00;-1.00;97953;294;1003359;-35
2023/06/20 09:36:42;;;;;;;7.40;4.90;;;;;;;-128.00;-1.00;-1.00;98170;294;1004708;-35
2023/06/20 09:39:10;;;;;;;6.10;4.50;;;;;;;-128.00;-1.00;-1.00;97957;294;1004369;-32
2023/06/20 09:41:36;;;;;;;6.20;5.60;;;;;;;-128.00;-1.00;-1.00;97923;294;1003585;-35
2023/06/20 09:44:02;;;;;;;4.50;4.10;;;;;;;-128.00;-1.00;-1.00;97884;294;1002988;-31
2023/06/20 09:46:28;;;;;;;5.10;4.70;;;;;;;-128.00;-1.00;-1.00;97883;294;1003450;-37
2023/06/20 09:48:53;;;;;;;6.00;5.40;;;;;;;-128.00;-1.00;-1.00;97955;294;1004186;-35
2023/06/20 09:51:19;;;;;;;6.10;5.30;;;;;;;-128.00;-1.00;-1.00;98041;294;1003790;-31
2023/06/20 09:53:54;;;;;;;5.70;4.90;;;;;;;-128.00;-1.00;-1.00;98021;294;1004326;-29
2023/06/20 09:56:20;;;;;;;5.00;3.70;;;;;;;-128.00;-1.00;-1.00;97918;294;1002624;-36
2023/06/20 09:58:45;;;;;;;7.00;5.30;;;;;;;-128.00;-1.00;-1.00;97963;294;1003450;-34
2023/06/20 10:01:14;;;;;;;7.20;4.00;;;;;;;-128.00;-1.00;-1.00;97911;294;1004399;-35
2023/06/20 10:03:39;;;;;;;5.40;4.80;;;;;;;-128.00;-1.00;-1.00;97883;294;1002897;-34
2023/06/20 10:06:05;;;;;;;8.40;4.20;;;;;;;-128.00;-1.00;-1.00;97972;294;1005488;-31
2023/06/20 10:08:30;;;;;;;4.70;4.30;;;;;;;-128.00;-1.00;-1.00;97884;294;1003180;-31
2023/06/20 10:10:56;;;;;;;4.90;4.00;;;;;;;-128.00;-1.00;-1.00;97969;294;1002706;-31
2023/06/20 10:13:22;;;;;;;5.40;4.70;;;;;;;-128.00;-1.00;-1.00;97895;293;1005041;-35
2023/06/20 10:15:48;;;;;;;5.40;5.00;;;;;;;-128.00;-1.00;-1.00;97934;294;1003039;-34
2023/06/20 10:18:36;;;;;;;4.40;4.00;;;;;;;-128.00;-1.00;-1.00;97883;294;1004622;-32
2023/06/20 10:21:05;;;;;;;5.90;5.30;;;;;;;-128.00;-1.00;-1.00;97968;294;1002804;-40
2023/06/20 10:23:32;;;;;;;4.00;3.60;;;;;;;-128.00;-1.00;-1.00;98075;294;1003184;-31
2023/06/20 10:26:02;;;;;;;3.30;3.00;;;;;;;-128.00;-1.00;-1.00;97886;294;1004669;-35
2023/06/20 10:28:28;;;;;;;4.10;3.60;;;;;;;-128.00;-1.00;-1.00;97938;294;1003030;-32
2023/06/20 10:31:02;;;;;;;3.90;3.50;;;;;;;-128.00;-1.00;-1.00;97652;294;1005024;-36
2023/06/20 10:33:33;;;;;;;7.20;4.60;;;;;;;-128.00;-1.00;-1.00;97800;294;1004110;-35
2023/06/20 10:36:07;;;;;;;5.60;5.10;;;;;;;-128.00;-1.00;-1.00;97840;294;1003572;-35
2023/06/20 10:38:34;;;;;;;4.00;3.70;;;;;;;-128.00;-1.00;-1.00;97847;294;1003276;-32
2023/06/20 10:41:15;;;;;;;3.70;3.40;;;;;;;-128.00;-1.00;-1.00;97910;294;1003655;-35
2023/06/20 10:43:54;;;;;;;3.50;3.20;;;;;;;-128.00;-1.00;-1.00;97891;287;1004430;-32
2023/06/20 10:46:22;;;;;;;4.80;4.10;;;;;;;-128.00;-1.00;-1.00;98001;294;1003280;-35
2023/06/20 10:48:48;;;;;;;4.50;4.20;;;;;;;-128.00;-1.00;-1.00;98040;294;1004990;-35
2023/06/20 10:51:16;;;;;;;4.50;3.70;;;;;;;-128.00;-1.00;-1.00;97937;293;1005673;-35
2023/06/20 10:53:42;;;;;;;4.50;4.10;;;;;;;-128.00;-1.00;-1.00;97949;294;1003459;-36
2023/06/20 10:56:08;;;;;;;4.90;4.40;;;;;;;-128.00;-1.00;-1.00;97907;294;1004164;-31
2023/06/20 10:58:34;;;;;;;4.20;3.80;;;;;;;-128.00;-1.00;-1.00;97995;294;1003147;-33
2023/06/20 11:01:00;;;;;;;4.20;3.60;;;;;;;-128.00;-1.00;-1.00;97904;294;1003404;-31
2023/06/20 11:03:25;;;;;;;5.00;4.60;;;;;;;-128.00;-1.00;-1.00;97925;294;1003100;-35
2023/06/20 11:05:51;;;;;;;7.20;4.60;;;;;;;-128.00;-1.00;-1.00;97992;294;1003546;-36
2023/06/20 11:08:22;;;;;;;4.60;3.70;;;;;;;-128.00;-1.00;-1.00;98114;294;1004225;-32
2023/06/20 11:10:47;;;;;;;4.70;4.20;;;;;;;-128.00;-1.00;-1.00;97947;294;1003702;-32
2023/06/20 11:13:13;;;;;;;4.60;4.20;;;;;;;-128.00;-1.00;-1.00;98051;294;1005228;-32
2023/06/20 11:15:39;;;;;;;5.00;4.50;;;;;;;-128.00;-1.00;-1.00;97865;294;1003354;-35
2023/06/20 11:18:06;;;;;;;4.50;4.10;;;;;;;-128.00;-1.00;-1.00;97801;293;1003924;-35
2023/06/20 11:20:35;;;;;;;4.50;3.50;;;;;;;-128.00;-1.00;-1.00;97941;294;1002967;-32
2023/06/20 11:23:01;;;;;;;5.40;4.80;;;;;;;-128.00;-1.00;-1.00;97899;294;1003086;-35
2023/06/20 11:25:28;;;;;;;5.50;4.90;;;;;;;-128.00;-1.00;-1.00;97990;294;1003293;-31
2023/06/20 11:27:55;;;;;;;3.80;3.50;;;;;;;-128.00;-1.00;-1.00;97911;283;1003614;-35
2023/06/20 11:30:28;;;;;;;5.70;5.30;;;;;;;-128.00;-1.00;-1.00;97880;294;1005364;-36
2023/06/20 11:33:02;;;;;;;6.60;4.90;;;;;;;-128.00;-1.00;-1.00;97811;294;1002712;-35
2023/06/20 11:35:47;;;;;;;5.10;4.70;;;;;;;-128.00;-1.00;-1.00;98062;294;1002887;-32
2023/06/20 11:38:21;;;;;;;6.30;5.60;;;;;;;-128.00;-1.00;-1.00;97969;294;1003744;-32
2023/06/20 11:40:51;;;;;;;4.40;4.10;;;;;;;-128.00;-1.00;-1.00;98036;294;1004259;-32
2023/06/20 11:43:25;;;;;;;4.80;4.40;;;;;;;-128.00;-1.00;-1.00;98047;294;1003367;-38
2023/06/20 11:45:51;;;;;;;5.30;4.80;;;;;;;-128.00;-1.00;-1.00;97941;294;1002276;-35
2023/06/20 11:48:16;;;;;;;5.00;4.60;;;;;;;-128.00;-1.00;-1.00;97848;294;1002573;-31
2023/06/20 11:50:43;;;;;;;5.80;5.30;;;;;;;-128.00;-1.00;-1.00;82181;294;7504128;-31
2023/06/20 11:53:17;;;;;;;4.70;4.30;;;;;;;-128.00;-1.00;-1.00;97336;293;1185084;-34
2023/06/20 11:55:49;;;;;;;7.10;6.40;;;;;;;-128.00;-1.00;-1.00;97719;294;1003457;-35
2023/06/20 11:58:15;;;;;;;8.70;5.20;;;;;;;-128.00;-1.00;-1.00;97914;293;1003126;-31
2023/06/20 12:00:45;;;;;;;5.50;5.10;;;;;;;-128.00;-1.00;-1.00;97909;283;1004766;-31
2023/06/20 12:03:11;;;;;;;7.50;6.80;;;;;;;-128.00;-1.00;-1.00;97948;294;1003340;-31
2023/06/20 12:05:40;;;;;;;7.80;5.90;;;;;;;-128.00;-1.00;-1.00;95821;294;3003095;-34
2023/06/20 12:08:06;;;;;;;5.10;4.70;;;;;;;-128.00;-1.00;-1.00;98004;295;1003729;-31